createdAt,value
2019-02-07T00:00:50.944Z,95300.02
2019-02-07T00:03:24.539Z,95292.26
2019-02-07T00:05:58.031Z,95295.53
2019-02-07T00:08:31.864Z,95293.50
2019-02-07T00:11:05.797Z,95285.75
2019-02-07T00:13:39.567Z,95283.12
2019-02-07T00:16:13.089Z,95280.24
2019-02-07T00:18:47.096Z,95278.28
2019-02-07T00:21:19.860Z,95283.64
2019-02-07T00:23:52.570Z,95281.35
2019-02-07T00:26:25.476Z,95283.30
2019-02-07T00:28:59.518Z,95288.38
2019-02-07T00:31:32.570Z,95290.74
2019-02-07T00:34:06.192Z,95292.86
2019-02-07T00:36:39.069Z,95292.70
2019-02-07T00:39:12.544Z,95291.40
2019-02-07T00:41:45.369Z,95295.34
2019-02-07T00:44:18.393Z,95294.80
2019-02-07T00:46:51.148Z,95296.46
2019-02-07T00:49:24.132Z,95289.66
2019-02-07T00:51:57.152Z,95287.28
2019-02-07T00:54:30.126Z,95288.63
2019-02-07T00:57:02.890Z,95285.73
2019-02-07T00:59:35.504Z,95281.20
2019-02-07T01:02:08.396Z,95281.88
2019-02-07T01:04:41.319Z,95283.39
2019-02-07T01:07:14.178Z,95279.19
2019-02-07T01:09:47.451Z,95286.11
2019-02-07T01:12:21.760Z,95291.48
2019-02-07T01:15:01.627Z,95281.86
2019-02-07T01:17:29.741Z,95278.17
2019-02-07T01:20:02.655Z,95274.48
2019-02-07T01:22:35.510Z,95278.05
2019-02-07T01:25:11.758Z,95282.23
2019-02-07T01:27:45.994Z,95278.08
2019-02-07T01:30:21.568Z,95272.80
2019-02-07T01:32:54.926Z,95275.47
2019-02-07T01:35:27.905Z,95264.39
2019-02-07T01:38:00.667Z,95259.01
2019-02-07T01:40:33.668Z,95256.06
2019-02-07T01:43:06.572Z,95255.80
2019-02-07T01:45:39.464Z,95261.78
2019-02-07T01:48:12.497Z,95261.19
2019-02-07T01:50:45.434Z,95265.91
2019-02-07T01:53:18.112Z,95266.84
2019-02-07T01:55:51.064Z,95261.11
2019-02-07T01:58:23.903Z,95266.80
2019-02-07T02:00:57.405Z,95263.84
2019-02-07T02:03:30.364Z,95269.69
2019-02-07T02:06:03.582Z,95265.91
2019-02-07T02:08:36.421Z,95267.64
2019-02-07T02:11:09.649Z,95264.23
2019-02-07T02:13:43.124Z,95265.58
2019-02-07T02:16:16.306Z,95266.67
2019-02-07T02:18:49.345Z,95265.78
2019-02-07T02:21:22.279Z,95264.55
2019-02-07T02:23:55.580Z,95269.41
2019-02-07T02:26:28.542Z,95276.64
2019-02-07T02:29:01.328Z,95276.33
2019-02-07T02:31:34.093Z,95273.30
2019-02-07T02:34:07.191Z,95266.45
2019-02-07T02:36:40.270Z,95266.16
2019-02-07T02:39:15.316Z,95273.77
2019-02-07T02:41:48.388Z,95272.14
2019-02-07T02:44:21.371Z,95268.73
2019-02-07T02:46:54.843Z,95262.59
2019-02-07T02:49:27.900Z,95262.43
2019-02-07T02:52:00.816Z,95262.67
2019-02-07T02:54:43.938Z,95268.20
2019-02-07T02:57:17.176Z,95267.69
2019-02-07T02:59:50.064Z,95262.01
2019-02-07T03:02:44.895Z,95271.08
2019-02-07T03:05:31.737Z,95270.42
2019-02-07T03:08:26.696Z,95277.68
2019-02-07T03:11:17.607Z,95279.27
2019-02-07T03:14:21.703Z,95270.95
2019-02-07T03:17:16.262Z,95283.11
2019-02-07T03:20:02.868Z,95288.80
2019-02-07T03:23:12.788Z,95294.33
2019-02-07T03:26:24.046Z,95281.70
2019-02-07T03:29:27.917Z,95288.81
2019-02-07T03:32:11.040Z,95290.78
2019-02-07T03:34:57.044Z,95284.05
2019-02-07T03:37:54.717Z,95290.87
2019-02-07T03:41:01.733Z,95290.49
2019-02-07T03:43:51.844Z,95290.13
2019-02-07T03:46:46.405Z,95300.02
2019-02-07T03:49:43.767Z,95297.14
2019-02-07T03:52:35.471Z,95294.79
2019-02-07T03:55:37.407Z,95300.17
2019-02-07T03:58:29.037Z,95306.42
2019-02-07T04:01:19.504Z,95306.14
2019-02-07T04:04:11.527Z,95304.54
2019-02-07T04:06:56.907Z,95304.03
2019-02-07T04:09:48.449Z,95301.23
2019-02-07T04:12:43.408Z,95296.55
2019-02-07T04:15:49.044Z,95293.23
2019-02-07T04:18:33.713Z,95290.91
2019-02-07T04:21:21.256Z,95293.59
2019-02-07T04:24:06.607Z,95295.14
2019-02-07T04:27:01.401Z,95293.16
2019-02-07T04:29:56.473Z,95298.74
2019-02-07T04:32:57.928Z,95304.89
2019-02-07T04:36:01.923Z,95296.08
2019-02-07T04:39:02.945Z,95290.91
2019-02-07T04:41:54.181Z,95286.78
2019-02-07T04:45:04.573Z,95283.17
2019-02-07T04:47:55.473Z,95285.41
2019-02-07T04:50:59.451Z,95278.44
2019-02-07T04:53:51.484Z,95274.20
2019-02-07T04:56:46.071Z,95276.14
2019-02-07T04:59:26.634Z,95281.89
2019-02-07T05:02:24.375Z,95277.88
2019-02-07T05:05:28.388Z,95278.80
2019-02-07T05:08:18.770Z,95270.67
2019-02-07T05:11:13.392Z,95278.58
2019-02-07T05:14:08.647Z,95279.94
2019-02-07T05:17:03.538Z,95279.45
2019-02-07T05:19:58.797Z,95287.68
2019-02-07T05:22:49.622Z,95284.19
2019-02-07T05:25:41.901Z,95280.62
2019-02-07T05:28:33.820Z,95288.61
2019-02-07T05:31:32.092Z,95288.28
2019-02-07T05:34:14.838Z,95284.45
2019-02-07T05:37:15.410Z,95280.06
2019-02-07T05:40:05.986Z,95281.06
2019-02-07T05:42:56.973Z,95277.44
2019-02-07T05:46:00.759Z,95277.56
2019-02-07T05:48:51.685Z,95284.58
2019-02-07T05:51:49.431Z,95275.26
2019-02-07T05:54:44.282Z,95279.77
2019-02-07T05:57:28.020Z,95280.35
2019-02-07T06:00:33.127Z,95277.84
2019-02-07T06:03:35.948Z,95280.27
2019-02-07T06:06:26.548Z,95286.77
2019-02-07T06:09:18.326Z,95289.95
2019-02-07T06:12:08.907Z,95290.37
2019-02-07T06:14:59.997Z,95291.67
2019-02-07T06:17:50.566Z,95286.98
2019-02-07T06:20:45.351Z,95287.73
2019-02-07T06:23:30.484Z,95291.37
2019-02-07T06:26:18.759Z,95280.16
2019-02-07T06:29:00.693Z,95285.59
2019-02-07T06:32:01.897Z,95287.67
2019-02-07T06:34:52.476Z,95291.23
2019-02-07T06:37:42.796Z,95293.38
2019-02-07T06:40:53.143Z,95289.33
2019-02-07T06:43:36.389Z,95296.51
2019-02-07T06:46:34.798Z,95304.19
2019-02-07T06:49:23.180Z,95303.22
2019-02-07T06:52:17.919Z,95305.21
2019-02-07T06:55:10.191Z,95309.33
2019-02-07T06:58:04.905Z,95307.18
2019-02-07T07:01:03.187Z,95315.36
2019-02-07T07:04:04.225Z,95311.77
2019-02-07T07:07:11.173Z,95308.14
2019-02-07T07:10:04.256Z,95316.80
2019-02-07T07:12:55.202Z,95317.30
2019-02-07T07:15:43.521Z,95311.23
2019-02-07T07:18:38.466Z,95305.98
2019-02-07T07:21:45.824Z,95315.85
2019-02-07T07:24:49.812Z,95314.40
2019-02-07T07:27:40.516Z,95308.83
2019-02-07T07:30:33.394Z,95307.06
2019-02-07T07:33:32.546Z,95304.37
2019-02-07T07:36:23.738Z,95305.24
2019-02-07T07:39:09.565Z,95291.13
2019-02-07T07:42:07.545Z,95299.82
2019-02-07T07:45:01.099Z,95295.52
2019-02-07T07:48:05.552Z,95297.30
2019-02-07T07:50:57.416Z,95297.27
2019-02-07T07:53:48.657Z,95292.73
2019-02-07T07:56:39.300Z,95299.10
2019-02-07T07:59:33.916Z,95303.87
2019-02-07T08:02:24.599Z,95306.65
2019-02-07T08:05:23.477Z,95316.41
2019-02-07T08:08:24.682Z,95321.67
2019-02-07T08:11:19.162Z,95330.88
2019-02-07T08:14:08.129Z,95337.17
2019-02-07T08:16:59.149Z,95335.60
2019-02-07T08:19:53.035Z,95342.33
2019-02-07T08:22:43.583Z,95341.16
2019-02-07T08:25:34.370Z,95342.10
2019-02-07T08:28:30.304Z,95339.38
2019-02-07T08:31:22.429Z,95335.02
2019-02-07T08:34:26.628Z,95330.09
2019-02-07T08:37:14.433Z,95334.93
2019-02-07T08:40:10.748Z,95331.34
2019-02-07T08:43:08.716Z,95331.66
2019-02-07T08:45:50.505Z,95333.98
2019-02-07T08:48:43.458Z,95331.30
2019-02-07T08:51:35.481Z,95329.65
2019-02-07T08:54:43.660Z,95330.33
2019-02-07T08:57:28.518Z,95335.22
2019-02-07T09:00:29.558Z,95326.88
2019-02-07T09:03:12.672Z,95324.05
2019-02-07T09:06:17.354Z,95317.78
2019-02-07T09:09:18.314Z,95320.28
2019-02-07T09:12:19.273Z,95318.20
2019-02-07T09:15:17.500Z,95314.67
2019-02-07T09:18:18.536Z,95314.30
2019-02-07T09:21:10.243Z,95313.52
2019-02-07T09:24:05.447Z,95304.44
2019-02-07T09:27:00.314Z,95301.78
2019-02-07T09:29:53.882Z,95304.70
2019-02-07T09:33:04.008Z,95294.31
2019-02-07T09:35:49.182Z,95298.27
2019-02-07T09:38:40.999Z,95303.80
2019-02-07T09:41:31.487Z,95299.11
2019-02-07T09:44:13.679Z,95293.44
2019-02-07T09:47:04.062Z,95292.09
2019-02-07T09:49:46.689Z,95293.91
2019-02-07T09:52:28.901Z,95292.95
2019-02-07T09:55:24.311Z,95295.44
2019-02-07T09:58:08.367Z,95292.74
2019-02-07T10:01:00.597Z,95291.20
2019-02-07T10:03:52.311Z,95286.86
2019-02-07T10:06:33.887Z,95288.75
2019-02-07T10:09:35.100Z,95275.45
2019-02-07T10:12:33.414Z,95283.52
2019-02-07T10:15:29.451Z,95277.94
2019-02-07T10:18:33.609Z,95264.80
2019-02-07T10:21:24.637Z,95261.35
2019-02-07T10:24:14.910Z,95259.84
2019-02-07T10:27:10.771Z,95253.94
2019-02-07T10:30:07.185Z,95254.26
2019-02-07T10:32:58.098Z,95251.23
2019-02-07T10:36:06.068Z,95244.78
2019-02-07T10:38:50.643Z,95245.84
2019-02-07T10:41:54.638Z,95239.34
2019-02-07T10:44:45.619Z,95243.83
2019-02-07T10:47:44.128Z,95230.79
2019-02-07T10:50:34.595Z,95236.19
2019-02-07T10:53:27.965Z,95231.50
2019-02-07T10:56:35.308Z,95225.96
2019-02-07T10:59:30.150Z,95236.97
2019-02-07T11:02:31.086Z,95230.24
2019-02-07T11:05:21.494Z,95229.45
2019-02-07T11:08:12.233Z,95229.81
2019-02-07T11:11:09.138Z,95231.47
2019-02-07T11:14:03.704Z,95232.38
2019-02-07T11:17:03.847Z,95223.70
2019-02-07T11:19:57.394Z,95219.05
2019-02-07T11:22:40.115Z,95215.74
2019-02-07T11:25:35.592Z,95219.59
2019-02-07T11:28:20.964Z,95207.02
2019-02-07T11:31:24.989Z,95217.81
2019-02-07T11:34:15.661Z,95198.21
2019-02-07T11:37:10.944Z,95200.03
2019-02-07T11:40:10.234Z,95194.47
2019-02-07T11:43:05.422Z,95195.73
2019-02-07T11:46:00.303Z,95180.61
2019-02-07T11:48:52.396Z,95185.91
2019-02-07T11:51:53.249Z,95192.00
2019-02-07T11:54:45.485Z,95184.19
2019-02-07T11:57:46.809Z,95183.00
2019-02-07T12:00:39.155Z,95176.23
2019-02-07T12:03:23.134Z,95169.56
2019-02-07T12:06:13.848Z,95171.81
2019-02-07T12:09:15.441Z,95163.19
2019-02-07T12:12:13.605Z,95164.30
2019-02-07T12:15:05.728Z,95160.53
2019-02-07T12:17:59.068Z,95154.59
2019-02-07T12:20:50.882Z,95151.17
2019-02-07T12:23:52.333Z,95151.23
2019-02-07T12:26:43.321Z,95148.61
2019-02-07T12:29:38.424Z,95145.81
2019-02-07T12:32:54.989Z,95146.84
2019-02-07T12:35:57.257Z,95150.94
2019-02-07T12:38:53.728Z,95148.64
2019-02-07T12:41:44.479Z,95139.66
2019-02-07T12:44:35.188Z,95142.48
2019-02-07T12:47:27.390Z,95139.46
2019-02-07T12:50:19.625Z,95139.11
2019-02-07T12:53:10.198Z,95131.92
2019-02-07T12:55:55.812Z,95130.87
2019-02-07T12:59:07.878Z,95133.19
2019-02-07T13:01:58.942Z,95132.80
2019-02-07T13:04:49.691Z,95133.16
2019-02-07T13:07:40.995Z,95124.79
2019-02-07T13:10:35.129Z,95130.94
2019-02-07T13:13:23.340Z,95126.97
2019-02-07T13:16:24.297Z,95121.09
2019-02-07T13:19:15.121Z,95127.62
2019-02-07T13:22:19.190Z,95126.98
2019-02-07T13:25:06.252Z,95127.53
2019-02-07T13:27:58.468Z,95124.61
2019-02-07T13:30:51.460Z,95125.33
2019-02-07T13:33:42.973Z,95126.55
2019-02-07T13:36:38.085Z,95126.27
2019-02-07T13:39:22.429Z,95121.19
2019-02-07T13:42:15.889Z,95125.31
2019-02-07T13:45:06.697Z,95128.13
2019-02-07T13:47:57.683Z,95130.31
2019-02-07T13:50:52.567Z,95133.08
2019-02-07T13:53:46.271Z,95130.03
2019-02-07T13:56:36.998Z,95123.04
2019-02-07T13:59:19.437Z,95120.44
2019-02-07T14:02:30.765Z,95123.53
2019-02-07T14:05:35.402Z,95120.89
2019-02-07T14:08:38.110Z,95128.53
2019-02-07T14:11:25.102Z,95124.80
2019-02-07T14:14:35.829Z,95138.57
2019-02-07T14:17:20.382Z,95132.77
2019-02-07T14:20:11.587Z,95131.02
2019-02-07T14:23:16.016Z,95127.14
2019-02-07T14:26:08.333Z,95125.02
2019-02-07T14:29:01.756Z,95121.34
2019-02-07T14:31:54.226Z,95123.78
2019-02-07T14:34:36.942Z,95120.94
2019-02-07T14:37:20.548Z,95115.17
2019-02-07T14:40:25.249Z,95122.39
2019-02-07T14:43:11.773Z,95127.09
2019-02-07T14:45:51.319Z,95129.31
2019-02-07T14:48:27.054Z,95128.34
2019-02-07T14:51:01.019Z,95115.02
2019-02-07T14:53:34.670Z,95114.73
2019-02-07T14:56:11.695Z,95114.60
2019-02-07T14:58:49.982Z,95114.77
2019-02-07T15:01:25.111Z,95115.54
2019-02-07T15:03:58.636Z,95113.78
2019-02-07T15:06:32.610Z,95112.72
2019-02-07T15:09:15.248Z,95113.41
2019-02-07T15:11:49.077Z,95116.00
2019-02-07T15:14:22.965Z,95104.89
2019-02-07T15:16:56.982Z,95112.39
2019-02-07T15:19:30.865Z,95107.10
2019-02-07T15:22:04.617Z,95103.84
2019-02-07T15:24:39.773Z,95109.92
2019-02-07T15:27:13.093Z,95108.30
2019-02-07T15:29:46.737Z,95107.95
2019-02-07T15:32:20.254Z,95107.12
2019-02-07T15:34:54.062Z,95110.25
2019-02-07T15:37:27.836Z,95117.82
2019-02-07T15:40:01.869Z,95116.30
2019-02-07T15:42:35.790Z,95111.23
2019-02-07T15:45:12.291Z,95109.73
2019-02-07T15:47:46.158Z,95116.30
2019-02-07T15:50:23.743Z,95113.80
2019-02-07T15:53:00.514Z,95112.91
2019-02-07T15:55:35.393Z,95113.58
2019-02-07T15:58:09.739Z,95112.70
2019-02-07T16:00:56.118Z,95105.38
2019-02-07T16:03:42.169Z,95112.77
2019-02-07T16:06:16.295Z,95112.53
2019-02-07T16:08:51.746Z,95108.46
2019-02-07T16:11:27.082Z,95106.13
2019-02-07T16:14:00.594Z,95112.18
2019-02-07T16:16:34.748Z,95107.30
2019-02-07T16:19:08.503Z,95113.69
2019-02-07T16:21:42.203Z,95111.52
2019-02-07T16:24:16.181Z,95116.02
2019-02-07T16:26:49.678Z,95112.30
2019-02-07T16:29:42.950Z,95119.30
2019-02-07T16:32:16.797Z,95121.38
2019-02-07T16:34:50.310Z,95124.20
2019-02-07T16:37:24.287Z,95128.28
2019-02-07T16:39:57.879Z,95124.61
2019-02-07T16:42:31.133Z,95124.52
2019-02-07T16:45:05.888Z,95125.09
2019-02-07T16:47:39.655Z,95133.17
2019-02-07T16:50:16.124Z,95139.52
2019-02-07T16:52:49.587Z,95139.08
2019-02-07T16:55:23.290Z,95139.32
2019-02-07T16:57:57.075Z,95140.75
2019-02-07T17:00:31.194Z,95135.89
2019-02-07T17:03:05.364Z,95139.84
2019-02-07T17:05:38.854Z,95146.16
2019-02-07T17:08:12.408Z,95146.23
2019-02-07T17:10:45.432Z,95143.73
2019-02-07T17:13:18.876Z,95140.36
2019-02-07T17:15:52.611Z,95135.55
2019-02-07T17:18:26.071Z,95138.16
2019-02-07T17:21:11.244Z,95131.03
2019-02-07T17:23:34.989Z,95132.08
2019-02-07T17:26:08.484Z,95142.98
2019-02-07T17:28:41.800Z,95139.17
2019-02-07T17:31:15.162Z,95143.90
2019-02-07T17:33:48.670Z,95144.83
2019-02-07T17:36:22.627Z,95135.94
2019-02-07T17:38:56.356Z,95138.78
2019-02-07T17:41:29.544Z,95136.55
2019-02-07T17:44:05.661Z,95137.66
2019-02-07T17:46:39.154Z,95138.73
2019-02-07T17:49:12.370Z,95140.08
2019-02-07T17:51:45.388Z,95134.17
2019-02-07T17:54:19.250Z,95135.05
2019-02-07T17:56:52.579Z,95130.67
2019-02-07T17:59:25.423Z,95130.14
2019-02-07T18:01:58.858Z,95131.95
2019-02-07T18:04:32.570Z,95132.35
2019-02-07T18:07:06.401Z,95134.17
2019-02-07T18:09:39.810Z,95134.52
2019-02-07T18:12:15.449Z,95134.74
2019-02-07T18:14:49.027Z,95132.61
2019-02-07T18:17:22.580Z,95131.27
2019-02-07T18:19:56.385Z,95136.99
2019-02-07T18:22:29.677Z,95133.81
2019-02-07T18:25:02.860Z,95133.84
2019-02-07T18:27:36.201Z,95141.02
2019-02-07T18:30:14.196Z,95147.70
2019-02-07T18:32:48.490Z,95151.47
2019-02-07T18:35:22.436Z,95151.25
2019-02-07T18:37:56.009Z,95151.73
2019-02-07T18:40:30.030Z,95153.78
2019-02-07T18:43:03.523Z,95149.66
2019-02-07T18:45:37.190Z,95151.03
2019-02-07T18:48:10.803Z,95154.00
2019-02-07T18:50:43.860Z,95167.66
2019-02-07T18:53:16.882Z,95167.14
2019-02-07T18:55:50.491Z,95171.38
2019-02-07T18:58:25.141Z,95166.31
2019-02-07T19:00:58.242Z,95167.30
2019-02-07T19:03:31.424Z,95169.58
2019-02-07T19:06:04.963Z,95176.07
2019-02-07T19:08:38.684Z,95174.69
2019-02-07T19:11:11.908Z,95175.90
2019-02-07T19:13:44.957Z,95180.54
2019-02-07T19:16:22.195Z,95180.62
2019-02-07T19:18:55.515Z,95184.70
2019-02-07T19:21:28.439Z,95186.99
2019-02-07T19:24:03.384Z,95184.20
2019-02-07T19:26:36.529Z,95184.02
2019-02-07T19:29:09.714Z,95188.28
2019-02-07T19:31:43.223Z,95180.76
2019-02-07T19:34:16.223Z,95172.75
2019-02-07T19:36:50.623Z,95175.59
2019-02-07T19:39:23.901Z,95171.00
2019-02-07T19:41:58.606Z,95163.87
2019-02-07T19:44:35.319Z,95165.25
2019-02-07T19:47:08.585Z,95167.95
2019-02-07T19:49:42.096Z,95166.63
2019-02-07T19:52:16.833Z,95163.89
2019-02-07T19:54:50.087Z,95167.35
2019-02-07T19:57:24.984Z,95159.45
2019-02-07T19:59:58.617Z,95157.73
2019-02-07T20:02:32.050Z,95152.36
2019-02-07T20:05:06.291Z,95151.49
2019-02-07T20:07:39.651Z,95149.45
2019-02-07T20:10:17.911Z,95149.59
2019-02-07T20:12:51.484Z,95149.95
2019-02-07T20:15:29.416Z,95149.08
2019-02-07T20:18:02.642Z,95148.82
2019-02-07T20:20:36.107Z,95150.69
2019-02-07T20:23:09.378Z,95144.50
2019-02-07T20:25:42.935Z,95143.57
2019-02-07T20:28:16.253Z,95140.95
2019-02-07T20:33:23.208Z,95138.13
2019-02-07T20:35:56.621Z,95138.73
2019-02-07T20:38:30.207Z,95129.50
2019-02-07T20:41:03.287Z,95128.70
2019-02-07T20:43:36.864Z,95126.92
2019-02-07T20:46:10.331Z,95116.44
2019-02-07T20:48:43.563Z,95120.44
2019-02-07T20:51:16.976Z,95120.66
2019-02-07T20:53:50.554Z,95119.75
2019-02-07T20:56:24.170Z,95118.59
2019-02-07T20:59:00.521Z,95117.36
2019-02-07T21:01:33.862Z,95112.45
2019-02-07T21:04:07.784Z,95118.14
2019-02-07T21:06:41.431Z,95114.53
2019-02-07T21:09:15.194Z,95115.22
2019-02-07T21:11:49.007Z,95107.58
2019-02-07T21:14:22.861Z,95109.88
2019-02-07T21:16:56.027Z,95109.64
2019-02-07T21:19:29.519Z,95111.34
2019-02-07T21:22:03.008Z,95106.75
2019-02-07T21:24:36.343Z,95104.70
2019-02-07T21:27:09.402Z,95105.35
2019-02-07T21:29:42.629Z,95105.58
2019-02-07T21:32:15.733Z,95098.58
2019-02-07T21:34:48.750Z,95099.81
2019-02-07T21:37:22.455Z,95094.94
2019-02-07T21:39:55.844Z,95097.99
2019-02-07T21:42:29.158Z,95094.28
2019-02-07T21:45:02.283Z,95090.00
2019-02-07T21:47:35.828Z,95094.42
2019-02-07T21:50:12.595Z,95091.67
2019-02-07T21:52:45.961Z,95085.45
2019-02-07T21:55:21.325Z,95092.45
2019-02-07T21:57:54.290Z,95090.39
2019-02-07T22:00:34.612Z,95090.31
2019-02-07T22:03:10.026Z,95088.22
2019-02-07T22:05:43.481Z,95085.16
2019-02-07T22:08:16.473Z,95088.77
2019-02-07T22:10:49.825Z,95086.42
2019-02-07T22:13:23.086Z,95080.16
2019-02-07T22:15:56.204Z,95078.17
2019-02-07T22:18:29.232Z,95081.27
2019-02-07T22:21:02.396Z,95083.47
2019-02-07T22:23:35.955Z,95080.88
2019-02-07T22:26:09.352Z,95081.10
2019-02-07T22:28:43.937Z,95079.05
2019-02-07T22:31:17.120Z,95072.81
2019-02-07T22:36:25.195Z,95074.32
2019-02-07T22:38:58.718Z,95076.14
2019-02-07T22:41:31.780Z,95082.24
2019-02-07T22:44:04.737Z,95077.66
2019-02-07T22:46:38.174Z,95077.30
2019-02-07T22:49:11.183Z,95069.53
2019-02-07T22:51:44.219Z,95066.22
2019-02-07T22:54:17.394Z,95067.37
2019-02-07T22:56:50.493Z,95068.28
2019-02-07T22:59:23.685Z,95064.58
2019-02-07T23:01:58.401Z,95067.41
2019-02-07T23:04:32.079Z,95062.14
2019-02-07T23:07:05.450Z,95063.52
2019-02-07T23:09:38.916Z,95062.50
2019-02-07T23:12:12.296Z,95064.84
2019-02-07T23:14:45.672Z,95067.73
2019-02-07T23:17:18.749Z,95064.88
2019-02-07T23:19:51.842Z,95063.16
2019-02-07T23:22:24.962Z,95061.66
2019-02-07T23:24:58.137Z,95065.66
2019-02-07T23:27:31.307Z,95064.16
2019-02-07T23:30:04.310Z,95058.59
2019-02-07T23:32:37.813Z,95058.10
2019-02-07T23:35:11.262Z,95054.89
2019-02-07T23:37:44.022Z,95047.81
2019-02-07T23:40:17.523Z,95050.72
2019-02-07T23:42:51.039Z,95050.91
2019-02-07T23:45:25.246Z,95051.02
2019-02-07T23:47:58.234Z,95053.77
2019-02-07T23:50:31.334Z,95053.33
2019-02-07T23:53:04.252Z,95047.55
2019-02-07T23:55:37.237Z,95044.58
2019-02-07T23:58:10.306Z,95043.75
